Flight Track Log - Related Links

Times and Time Zones

All times are in EDT time to prevent confusion due to time zone crossing. See the CCA4523 flight status page for this flight to view local times or setup timezone preferences in your user account.

Time Position Orientation Groundspeed Altitude Reporting Facility
EDT Latitude Longitude Course Direction KTS MPH feet Rate Location/Type
Sun 01:31:00 AM 32.6052 109.3492 91° East  Level Estimated
Sun 01:32:00 AM 32.5940 109.5153 95° East  Level Estimated
Sun 01:33:00 AM 32.5825 109.6814 95° East  Level Estimated
Sun 01:34:00 AM 32.5708 109.8474 95° East  Level Estimated
Sun 01:35:00 AM 32.5589 110.0133 95° East  Level Estimated
Sun 01:36:00 AM 32.5468 110.1792 95° East  Level Estimated
Sun 01:37:00 AM 32.5344 110.3451 95° East  Level Estimated
Sun 01:38:00 AM 32.5219 110.5109 95° East  Level Estimated
Sun 01:39:00 AM 32.5091 110.6767 95° East  Level Estimated
Sun 01:40:00 AM 32.4961 110.8424 95° East  Level Estimated
Sun 01:41:00 AM 32.4829 111.0081 95° East  Level Estimated
Sun 01:42:00 AM 32.4695 111.1737 95° East  Level Estimated
Sun 01:43:00 AM 32.4558 111.3393 96° East  Level Estimated
Sun 01:44:00 AM 32.4420 111.5048 96° East  Level Estimated
Sun 01:45:00 AM 32.4279 111.6703 96° East  Level Estimated
Sun 01:46:00 AM 32.4136 111.8357 96° East  Level Estimated
Sun 01:47:00 AM 32.3991 112.0011 96° East  Level Estimated
Sun 01:48:00 AM 32.3843 112.1664 96° East  Level Estimated
Sun 01:49:00 AM 32.3694 112.3317 96° East  Level Estimated
Sun 01:50:00 AM 32.3542 112.4969 96° East  Level Estimated
Sun 01:51:00 AM 32.3388 112.6620 96° East  Level Estimated
Sun 01:52:00 AM 32.3232 112.8271 96° East  Level Estimated
Sun 01:53:00 AM 32.3074 112.9922 96° East  Level Estimated
Sun 01:54:00 AM 32.2914 113.1572 97° East  Level Estimated
Sun 01:55:00 AM 32.2752 113.3221 97° East  Level Estimated
Sun 01:56:00 AM 32.2587 113.4870 97° East  Level Estimated
Sun 01:57:00 AM 32.2421 113.6517 97° East  Level Estimated
Sun 01:58:00 AM 32.2252 113.8165 97° East  Level Estimated
Sun 01:59:00 AM 32.2081 113.9812 97° East  Level Estimated
Sun 02:00:00 AM 32.1908 114.1458 97° East  Level Estimated
Sun 02:01:00 AM 32.1733 114.3103 97° East  Level Estimated
Sun 02:02:00 AM 32.1555 114.4748 97° East  Level Estimated
Sun 02:03:00 AM 32.1376 114.6393 97° East  Level Estimated
Sun 02:04:00 AM 32.1194 114.8036 97° East  Level Estimated
Sun 02:05:00 AM 32.1011 114.9679 97° East  Level Estimated
Sun 02:06:00 AM 32.0825 115.1322 98° East  Level Estimated
Sun 02:07:00 AM 32.0637 115.2963 98° East  Level Estimated
Sun 02:08:00 AM 32.0447 115.4604 98° East  Level Estimated
Sun 02:09:00 AM 32.0255 115.6245 98° East  Level Estimated
Sun 02:10:00 AM 32.0061 115.7884 98° East  Level Estimated
Sun 02:11:00 AM 31.9864 115.9523 98° East  Level Estimated
Sun 02:12:00 AM 31.9666 116.1161 98° East  Level Estimated
Sun 02:13:00 AM 31.9465 116.2799 98° East  Level Estimated
Sun 02:14:00 AM 31.9263 116.4435 98° East  Level Estimated
Sun 02:15:00 AM 31.9058 116.6071 98° East  Level Estimated
Sun 02:16:00 AM 31.8851 116.7707 98° East  Level Estimated
Sun 02:17:00 AM 31.8642 116.9341 99° East  Level Estimated
Sun 02:18:00 AM 31.8431 117.0975 99° East  Level Estimated
Sun 02:19:00 AM 31.8218 117.2608 99° East  Level Estimated
Sun 02:20:00 AM 31.8003 117.4240 99° East  Level Estimated
Sun 02:21:00 AM 31.7785 117.5872 99° East  Level Estimated
Sun 02:22:00 AM 31.7566 117.7503 99° East  Level Estimated
Sun 02:23:00 AM 31.7344 117.9133 99° East  Level Estimated
Sun 02:24:00 AM 31.7121 118.0762 99° East  Level Estimated
Sun 02:25:00 AM 31.6895 118.2390 99° East  Level Estimated
Sun 02:26:00 AM 31.6668 118.4018 99° East  Level Estimated
Sun 02:27:00 AM 31.6438 118.5645 99° East  Level Estimated
Sun 02:28:00 AM 31.6206 118.7271 99° East  Level Estimated
Sun 02:29:00 AM 31.5972 118.8896 100° East  Level Estimated
Sun 02:30:00 AM 31.5737 119.0520 100° East  Level Estimated
Sun 02:31:00 AM 31.5499 119.2144 100° East  Level Estimated
Sun 02:32:00 AM 31.5259 119.3767 100° East  Level Estimated
Sun 02:33:00 AM 31.5016 119.5389 100° East  Level Estimated
Sun 02:34:00 AM 31.4772 119.7010 100° East  Level Estimated
Sun 02:35:00 AM 31.4526 119.8630 100° East  Level Estimated
Sun 02:36:00 AM 31.4278 120.0249 100° East  Level Estimated
Sun 02:37:00 AM 31.4028 120.1868 100° East  Level Estimated
Sun 02:38:00 AM 31.3776 120.3485 100° East  Level Estimated
Sun 02:39:00 AM 31.3521 120.5102 100° East  Level Estimated
Sun 02:40:00 AM 31.3265 120.6718 100° East  Level Estimated
Sun 02:41:00 AM 31.3007 120.8333 101° East  Level Estimated
Sun 02:42:00 AM 31.2746 120.9947 101° East  Level Estimated
Sun 02:43:00 AM 31.2484 121.1560 101° East  Level Estimated
Sun 02:44:00 AM 31.2220 121.3172 101° East  Level Estimated
Sun 02:45:00 AM 31.1953 121.4784 101° East  Level Estimated
Sun 02:46:00 AM 31.1685 121.6394 101° East  Level Estimated
Sun 02:47:00 AM 31.1428 121.7924 101° East  Level Estimated
Sun 02:48:00 AM 31.1428 121.7924 221° Southwest  Level Estimated
Sun 02:49:00 AM 31.1428 121.7924 221° Southwest  Level Estimated
Sun 02:50:00 AM 31.1428 121.7924 221° Southwest  Level Estimated
Sun 02:51:00 AM 31.1428 121.7924 221° Southwest  Level Estimated
Sun 02:52:00 AM 31.1428 121.7924 221° Southwest  Level Estimated
Sun 02:53:00 AM 31.1428 121.7924 221° Southwest  Level Estimated
Sun 02:54:00 AM 31.1428 121.7924 221° Southwest  Level Estimated
Sun 02:55:00 AM 31.1428 121.7924 221° Southwest  Level Estimated
Sun 02:56:00 AM 31.1428 121.7924 221° Southwest  Level Estimated
Sun 02:57:00 AM 31.1428 121.7924 221° Southwest  Level Estimated
Sun 02:58:00 AM 31.1428 121.7924 221° Southwest  Level Estimated
Sun 02:59:00 AM 31.1428 121.7924 221° Southwest  Level Estimated
Sun 02:59:49 AM 31.5450 120.4780 221° Southwest 420 483 19,700  Level FlightAware ADS-B
Sun 03:00:00 AM 31.1428 121.7924 221° Southwest  Level Estimated
Sun 03:01:00 AM 31.1428 121.7924 221° Southwest  Level Estimated
Sun 03:01:48 AM 31.4830 120.6980 108° East 417 480 19,700  Level FlightAware ADS-B
Sun 03:02:42 AM 31.4340 120.8410 112° Southeast 399 459 17,600 -2,182 Descending FlightAware ADS-B
Sun 03:03:27 AM 31.4060 120.9320 110° East 388 447 16,100 -2,118 Descending FlightAware ADS-B
Sun 03:04:07 AM 31.3820 121.0100 110° East 385 443 14,600 -1,840 Descending FlightAware ADS-B
Sun 03:04:42 AM 31.3620 121.0770 109° East 364 419 13,800 -640 Descending FlightAware ADS-B
Sun 03:05:22 AM 31.3410 121.1460 110° East 337 388 13,800 -635 Level FlightAware ADS-B
Sun 03:06:07 AM 31.3170 121.2250 110° East 326 375 12,900 -1,275 Descending FlightAware ADS-B
Sun 03:06:42 AM 31.3000 121.2820 109° East 313 360 12,100 -1,091 Descending FlightAware ADS-B
Sun 03:07:57 AM 31.2860 121.3980 98° East 319 367 10,900 -2,084 Descending FlightAware ADS-B
Sun 03:08:17 AM 31.3020 121.4400 66° East 309 356 8,800 -2,538 Descending FlightAware ADS-B
Sun 03:08:49 AM 31.3090 121.4800 78° East 309 356 8,700 -1,867 Descending FlightAware ADS-B
Sun 03:09:02 AM 31.3200 121.5080 65° Northeast 290 334 7,400 -2,372 Descending FlightAware ADS-B
Sun 03:09:32 AM 31.3350 121.5440 64° Northeast 269 310 7,000 -933 Descending FlightAware ADS-B
Sun 03:09:47 AM 31.3450 121.5670 63° Northeast 262 302 6,700 -900 Descending FlightAware ADS-B
Sun 03:10:12 AM 31.3580 121.5980 64° Northeast 234 269 6,400 -840 Descending FlightAware ADS-B
Sun 03:10:37 AM 31.3690 121.6230 63° Northeast 220 253 6,000 -1,263 Descending FlightAware ADS-B
Sun 03:11:09 AM 31.3790 121.6510 67° East 207 238 5,200 -1,745 Descending FlightAware ADS-B
Sun 03:11:32 AM 31.3670 121.6810 115° Southeast 193 222 4,400 -1,636 Descending FlightAware ADS-B
Sun 03:11:42 AM 31.3620 121.6870 134° Southeast 192 221 4,300 -1,050 Descending FlightAware ADS-B
Sun 03:12:12 AM 31.3420 121.7120 133° Southeast 184 212 3,700 -900 Descending FlightAware ADS-B
Sun 03:12:22 AM 31.3350 121.7150 160° South 174 200 3,700 -600 Level FlightAware ADS-B
Sun 03:12:52 AM 31.3150 121.7230 161° South 167 192 3,300 -545 Descending FlightAware ADS-B
Sun 03:13:39 AM 31.2840 121.7350 162° South 155 178 3,000 -595 Descending FlightAware ADS-B
Sun 03:14:43 AM 31.2440 121.7500 162° South 124 143 2,200 -732 Descending FlightAware ADS-B
Sun 03:17:00 AM 31.1428 121.7924 160° South  Level Estimated
Sun 03:17:12 AM 31.1580 121.7820 160° South 117 135 400  Level FlightAware ADS-B
Sun 03:17:39 AM 31.1470 121.7870 159° South 117 135 400  Level FlightAware ADS-B

Login

Don't have an account? Register now (free) for customized features, flight alerts, and more!